Latest Weather Observations for Winton

IDQ60801

Issued at 2:52 pm EST Tuesday 10 December 2019 (issued every 10 minutes, with the page automatically refreshed every 10 minutes)

About weather observations | Map of weather stations | Latest weather observations for QLD | Other Formats
Station Details ID: 037039 Name: WINTON AIRPORT Lat: -22.36 Lon: 143.08 Height: 192.2 m
Data from the previous 72 hours. | See also: Recent months at Winton
Date/Time
EST
Temp
°C
App
Temp
°C
Dew
Point
°C
Rel
Hum
%
Delta-T
°C
Wind Press
QNH
hPa
Press
MSL
hPa
Rain since
9am
mm
Dir  Spd
km/h
Gust
km/h
Spd
kts
Gust
kts
10/02:30pm 39.7 33.9 2.4 10 19.8 E 22 35 12 19 1010.8 1009.3 0.0
10/02:00pm 40.1 34.9 2.7 10 20.0 ENE 19 35 10 19 1011.3 1009.8 0.0
10/01:44pm 40.1 32.8 2.7 10 20.0 E 30 46 16 25 1011.5 1010.0 0.0
10/01:34pm 39.8 33.9 3.8 11 19.5 E 24 48 13 26 1011.7 1010.2 0.0
10/01:30pm 39.3 33.9 4.7 12 19.0 E 22 35 12 19 1011.7 1010.2 0.0
10/01:00pm 39.7 33.6 5.0 12 19.2 E 26 33 14 18 1012.3 1010.8 0.0
10/12:30pm 38.5 33.1 6.3 14 18.0 ENE 24 35 13 19 1012.8 1011.3 0.0
10/12:00pm 38.0 33.9 7.8 16 17.3 ENE 19 30 10 16 1013.5 1012.0 0.0
10/11:30am 36.8 32.1 7.8 17 16.5 NE 22 32 12 17 1013.9 1012.4 0.0
10/11:00am 35.8 31.7 8.6 19 15.6 ENE 20 33 11 18 1014.3 1012.8 0.0
10/10:30am 36.0 31.7 8.0 18 15.9 ENE 20 26 11 14 1014.7 1013.3 0.0
10/10:00am 34.4 30.6 8.9 21 14.6 NE 19 30 10 16 1014.9 1013.5 0.0
10/09:30am 32.4 28.6 9.9 25 12.9 NE 20 32 11 17 1015.1 1013.7 0.0
10/09:00am 31.6 28.2 11.4 29 11.8 NE 20 32 11 17 1015.0 1013.6 0.0
10/08:30am 30.6 26.3 12.0 32 11.0 NNE 26 33 14 18 1014.9 1013.5 0.0
10/08:00am 29.4 24.3 11.9 34 10.2 NNE 30 35 16 19 1014.8 1013.4 0.0
10/07:30am 28.4 22.3 11.9 36 9.6 NNE 35 44 19 24 1014.1 1012.6 0.0
10/07:00am 27.6 21.9 11.2 36 9.4 NE 32 41 17 22 1013.5 1012.0 0.0
10/06:30am 26.3 22.6 10.0 36 9.1 NE 20 30 11 16 1013.4 1011.9 0.0
10/06:00am 25.4 21.5 8.8 35 9.1 NE 19 24 10 13 1013.1 1011.6 0.0
10/05:30am 24.9 20.3 6.6 31 9.6 NE 20 24 11 13 1012.6 1011.1 0.0
10/05:00am 25.1 20.2 5.3 28 10.1 NE 20 24 11 13 1012.2 1010.7 0.0
10/04:30am 25.9 21.0 4.9 26 10.7 NE 20 24 11 13 1012.2 1010.7 0.0
10/04:00am 26.5 21.6 4.9 25 11.1 NE 20 26 11 14 1012.1 1010.6 0.0
10/03:30am 26.8 22.1 5.1 25 11.2 NE 19 24 10 13 1012.1 1010.6 0.0
10/03:00am 27.1 22.3 5.4 25 11.3 NE 20 26 11 14 1012.1 1010.6 0.0
10/02:30am 27.1 22.0 4.2 23 11.6 NE 20 26 11 14 1012.1 1010.6 0.0
10/02:00am 27.4 23.0 4.5 23 11.7 NE 17 20 9 11 1012.3 1010.8 0.0
10/01:30am 27.9 23.1 4.9 23 11.9 NE 19 26 10 14 1012.4 1010.9 0.0
10/01:00am 26.6 22.7 3.2 22 11.7 NE 13 15 7 8 1012.6 1011.1 0.0
10/12:30am 26.8 22.9 3.3 22 11.7 NE 13 20 7 11 1012.9 1011.4 0.0
10/12:00am 27.6 24.1 3.3 21 12.2 NE 11 11 6 6 1013.0 1011.5 0.0
 
Date/Time
EST
Temp
°C
App
Temp
°C
Dew
Point
°C
Rel
Hum
%
Delta-T
°C
Wind Press
QNH
hPa
Press
MSL
hPa
Rain since
9am
mm
Dir  Spd
km/h
Gust
km/h
Spd
kts
Gust
kts
09/11:30pm 29.7 25.5 3.6 19 13.3 NE 15 20 8 11 1013.2 1011.7 0.0
09/11:00pm 31.1 26.6 4.0 18 14.1 ENE 17 20 9 11 1013.2 1011.7 0.0
09/10:30pm 31.3 26.6 3.4 17 14.4 NE 17 20 9 11 1013.1 1011.6 0.0
09/10:00pm 32.6 27.6 3.5 16 15.1 ENE 19 24 10 13 1013.2 1011.7 0.0
09/09:30pm 34.1 28.9 3.8 15 16.0 ENE 20 24 11 13 1013.1 1011.6 0.0
09/09:00pm 34.5 29.4 4.1 15 16.1 ENE 20 24 11 13 1012.8 1011.3 0.0
09/08:30pm 35.3 30.3 4.8 15 16.4 ENE 20 28 11 15 1012.5 1011.0 0.0
09/08:00pm 36.0 30.9 4.3 14 17.0 ENE 20 26 11 14 1012.3 1010.8 0.0
09/07:30pm 36.8 31.9 4.9 14 17.3 E 20 26 11 14 1012.0 1010.5 0.0
09/07:00pm 37.7 31.9 4.6 13 18.0 E 24 33 13 18 1011.6 1010.1 0.0
09/06:30pm 38.6 31.8 2.9 11 19.0 ENE 28 35 15 19 1011.1 1009.6 0.0
09/06:00pm 39.7 33.5 2.4 10 19.8 ENE 24 37 13 20 1010.8 1009.3 0.0
09/05:30pm 40.3 34.0 1.4 9 20.4 E 24 35 13 19 1010.4 1009.0 0.0
09/05:00pm 41.0 35.1 1.9 9 20.8 E 22 52 12 28 1010.3 1008.9 0.0
09/04:59pm 41.3 35.5 2.1 9 20.9 E 22 52 12 28 1010.3 1008.9 0.0
09/04:30pm 41.4 35.6 2.2 9 21.0 E 22 30 12 16 1010.3 1008.9 0.0
09/04:00pm 41.2 35.9 2.0 9 20.9 ENE 19 35 10 19 1010.4 1009.0 0.0
09/03:30pm 42.3 35.9 1.2 8 21.8 E 24 37 13 20 1010.7 1009.2 0.0
09/03:00pm 41.9 35.9 0.9 8 21.6 E 22 39 12 21 1011.0 1009.5 0.0
09/02:30pm 42.0 36.9 1.0 8 21.6 E 17 37 9 20 1011.3 1009.8 0.0
09/02:00pm 41.5 37.1 0.6 8 21.4 ENE 13 22 7 12 1011.7 1010.2 0.0
09/01:30pm 41.8 35.8 0.8 8 21.5 E 22 39 12 21 1012.1 1010.6 0.0
09/01:00pm 42.2 36.2 1.1 8 21.7 NE 22 30 12 16 1012.6 1011.1 0.0
09/12:30pm 41.2 36.0 0.4 8 21.2 ENE 17 26 9 14 1013.0 1011.5 0.0
09/12:00pm 40.3 36.2 -0.3 8 20.8 E 11 20 6 11 1013.4 1011.9 0.0
09/11:30am 39.8 35.0 -2.4 7 20.9 NE 13 24 7 13 1014.0 1012.5 0.0
09/11:00am 39.3 34.5 -2.8 7 20.6 NNE 13 20 7 11 1014.3 1012.8 0.0
09/10:30am 38.3 33.4 -3.5 7 20.1 NNE 13 22 7 12 1014.5 1013.0 0.0
09/10:00am 37.1 32.3 -2.6 8 19.2 NNE 13 26 7 14 1014.6 1013.1 0.0
09/09:30am 35.7 32.3 -0.6 10 18.0 N 7 15 4 8 1014.9 1013.5 0.0
09/09:00am 33.7 30.1 0.4 12 16.5 N 9 15 5 8 1015.0 1013.6 0.6
09/08:30am 33.3 28.8 2.2 14 15.9 NNW 15 22 8 12 1014.9 1013.5 0.6
09/08:00am 32.2 28.1 2.3 15 15.2 N 13 22 7 12 1014.8 1013.4 0.6
09/07:30am 31.0 26.1 3.9 18 14.0 NNE 19 32 10 17 1014.4 1012.9 0.6
09/07:00am 29.3 26.9 5.4 22 12.6 WNW 7 13 4 7 1014.1 1012.6 0.6
09/06:30am 27.4 25.2 5.1 24 11.5 NE 6 6 3 3 1013.4 1011.9 0.6
09/06:00am 26.7 24.3 5.1 25 11.1 N 7 11 4 6 1012.8 1011.3 0.6
09/05:30am 28.0 23.3 5.0 23 11.9 NNE 19 26 10 14 1012.1 1010.6 0.6
09/05:00am 27.6 23.3 5.2 24 11.6 NNE 17 24 9 13 1011.6 1010.1 0.6
09/04:30am 26.9 23.0 5.2 25 11.2 NNE 15 17 8 9 1011.4 1009.9 0.6
09/04:00am 28.6 23.8 5.5 23 12.1 NNE 20 26 11 14 1011.2 1009.7 0.6
09/03:30am 29.3 24.7 6.7 24 12.2 NNE 20 30 11 16 1010.9 1009.4 0.6
09/03:00am 29.2 24.9 7.7 26 11.8 NNE 20 24 11 13 1010.8 1009.3 0.6
09/02:30am 29.9 25.2 7.8 25 12.1 NNE 22 28 12 15 1010.6 1009.1 0.6
09/02:00am 29.8 26.0 7.7 25 12.1 NNE 17 26 9 14 1010.6 1009.1 0.6
09/01:30am 29.1 24.8 7.1 25 11.9 NE 19 24 10 13 1010.8 1009.3 0.6
09/01:00am 29.2 26.2 7.7 26 11.8 NE 13 15 7 8 1010.6 1009.1 0.6
09/12:30am 29.6 26.7 8.1 26 11.9 ENE 13 15 7 8 1011.0 1009.5 0.6
09/12:00am 30.2 27.8 8.6 26 12.1 ENE 11 13 6 7 1011.2 1009.7 0.6
 
Date/Time
EST
Temp
°C
App
Temp
°C
Dew
Point
°C
Rel
Hum
%
Delta-T
°C
Wind Press
QNH
hPa
Press
MSL
hPa
Rain since
9am
mm
Dir  Spd
km/h
Gust
km/h
Spd
kts
Gust
kts
08/11:30pm 31.9 29.0 8.2 23 13.2 ENE 13 15 7 8 1011.4 1009.9 0.6
08/11:00pm 33.2 29.3 8.6 22 13.9 ENE 19 26 10 14 1011.3 1009.8 0.6
08/10:30pm 33.0 30.7 9.1 23 13.6 WNW 11 17 6 9 1011.0 1009.5 0.6
08/10:00pm 35.4 30.6 7.5 18 15.7 WNW 22 35 12 19 1010.7 1009.2 0.6
08/09:36pm 33.2 27.5 9.9 24 13.5 W 30 50 16 27 1010.8 1009.3 0.6
08/09:30pm 34.3 28.5 9.5 22 14.3 WNW 30 48 16 26 1010.7 1009.2 0.6
08/09:16pm 33.3 28.4 11.2 26 13.0 W 28 56 15 30 1011.0 1009.5 0.6
08/09:13pm 32.6 29.3 11.7 28 12.4 W 20 41 11 22 1011.2 1009.7 0.6
08/09:04pm 34.1 28.3 10.7 24 13.7 NNE 32 48 17 26 1011.8 1010.3 0.2
08/09:00pm 30.9 25.8 13.2 34 10.7 NE 32 48 17 26 1011.6 1010.1 0.2
08/08:56pm 31.6 27.3 11.9 30 11.7 ENE 26 48 14 26 1011.1 1009.6 0.0
08/08:30pm 35.2 32.3 2.6 13 16.9 NNW 7 9 4 5 1009.4 1007.9 0.0
08/08:00pm 35.9 32.7 3.2 13 17.3 N 9 9 5 5 1009.3 1007.8 0.0
08/07:30pm 36.7 32.9 1.5 11 18.1 NNE 11 13 6 7 1008.9 1007.4 0.0
08/07:00pm 39.1 35.3 1.9 10 19.6 NNE 11 13 6 7 1008.4 1006.9 0.0
08/06:30pm 40.5 37.6 1.5 9 20.5 N 6 13 3 7 1007.9 1006.4 0.0
08/06:00pm 41.3 38.5 2.1 9 21.0 NNE 6 13 3 7 1007.6 1006.1 0.0
08/05:30pm 41.6 37.6 0.7 8 21.4 NNE 11 20 6 11 1007.4 1005.9 0.0
08/05:00pm 41.3 38.1 0.5 8 21.3 ENE 7 15 4 8 1007.3 1005.8 0.0
08/04:30pm 42.1 39.5 1.1 8 21.6 WNW 4 7 2 4 1007.3 1005.8 0.0
08/04:00pm 42.6 39.5 1.4 8 21.9 SW 7 15 4 8 1007.4 1005.9 0.0
08/03:30pm 42.1 39.0 1.1 8 21.6 WNW 7 15 4 8 1007.6 1006.1 0.0
08/03:00pm 41.6 37.3 0.7 8 21.4 NW 13 20 7 11 1008.0 1006.5 0.0
08/02:30pm 42.2 38.7 1.1 8 21.7 WNW 9 19 5 10 1008.4 1006.9 0.0
08/02:00pm 42.0 37.8 -0.9 7 22.0 NW 11 20 6 11 1008.7 1007.2 0.0
08/01:30pm 40.9 37.1 1.8 9 20.7 W 11 20 6 11 1009.1 1007.6 0.0
08/01:00pm 41.5 37.8 2.3 9 21.0 ENE 11 19 6 10 1009.6 1008.1 0.0
08/12:30pm 41.4 38.7 3.7 10 20.6 SW 7 15 4 8 1010.2 1008.8 0.0
08/12:00pm 40.6 37.5 5.7 12 19.6 NE 11 22 6 12 1010.8 1009.3 0.0
08/11:30am 39.6 36.8 7.1 14 18.5 N 11 24 6 13 1011.1 1009.6 0.0
08/11:00am 39.8 36.7 10.2 17 17.7 NNW 17 32 9 17 1011.4 1009.9 0.0
08/10:30am 38.7 35.5 10.1 18 16.9 NNW 17 26 9 14 1011.5 1010.0 0.0
08/10:00am 37.1 33.9 11.1 21 15.5 NNW 19 26 10 14 1011.8 1010.3 0.0
08/09:30am 35.9 32.4 10.2 21 15.1 NNW 19 28 10 15 1012.0 1010.5 0.0
08/09:00am 35.3 31.7 10.4 22 14.6 NNW 20 28 11 15 1011.9 1010.4 0.0
08/08:30am 33.4 29.4 6.6 19 14.7 N 17 22 9 12 1011.9 1010.4 0.0
08/08:00am 31.7 28.2 -1.2 12 15.7 NNE 7 11 4 6 1011.9 1010.4 0.0
08/07:30am 30.7 25.9 -5.8 9 16.0 ESE 11 13 6 7 1011.8 1010.3 0.0
08/07:00am 29.1 23.8 -7.0 9 15.3 ESE 13 20 7 11 1011.4 1009.9 0.0
08/06:30am 26.7 21.0 -7.4 10 14.0 SE 15 19 8 10 1011.0 1009.5 0.0
08/06:00am 24.5 18.9 -6.7 12 12.7 ESE 15 19 8 10 1010.8 1009.3 0.0
08/05:30am 21.6 16.6 -8.0 13 11.4 E 11 13 6 7 1010.3 1008.9 0.0
08/05:00am 25.3 19.6 -7.2 11 13.3 ESE 15 19 8 10 1009.8 1008.3 0.0
08/04:30am 21.9 18.7 -7.7 13 11.5 SE 2 4 1 2 1009.1 1007.6 0.0
08/04:00am 22.6 18.6 -7.2 13 11.8 ESE 6 7 3 4 1008.9 1007.4 0.0
08/03:37am 23.2 20.0 -7.7 12 12.2 S 2 6 1 3 1008.7 1007.2 0.0
08/03:30am 23.4 20.5 -7.6 12 12.3 CALM 0 0 0 0 1008.7 1007.2 0.0
08/03:20am 22.0 19.1 -7.6 13 11.6 CALM 0 6 0 3 1008.7 1007.2 0.0
08/03:00am 23.8 19.7 -8.4 11 12.7 SE 6 9 3 5 1008.6 1007.1 0.0
08/02:30am 24.0 19.8 -8.2 11 12.7 SE 7 9 4 5 1008.5 1007.0 0.0
08/02:00am 23.0 19.0 -7.9 12 12.2 ESE 6 7 3 4 1008.7 1007.2 0.0
08/01:30am 24.3 20.2 -9.2 10 13.0 SE 6 6 3 3 1008.9 1007.4 0.0
08/01:00am 23.8 18.7 -9.6 10 12.8 ESE 11 11 6 6 1009.1 1007.6 0.0
08/12:30am 24.5 19.0 -9.1 10 13.1 E 13 13 7 7 1009.3 1007.8 0.0
08/12:00am 24.7 19.5 -10.3 9 13.4 E 11 13 6 7 1009.5 1008.0 0.0
 
Date/Time
EST
Temp
°C
App
Temp
°C
Dew
Point
°C
Rel
Hum
%
Delta-T
°C
Wind Press
QNH
hPa
Press
MSL
hPa
Rain since
9am
mm
Dir  Spd
km/h
Gust
km/h
Spd
kts
Gust
kts
07/11:30pm 26.2 21.5 -9.1 9 14.0 E 9 11 5 6 1009.7 1008.2 0.0
07/11:00pm 27.7 23.4 -9.5 8 14.9 E 7 7 4 4 1009.8 1008.3 0.0
07/10:30pm 28.6 24.2 -10.5 7 15.5 ESE 7 7 4 4 1009.7 1008.2 0.0
07/10:00pm 30.2 25.9 -9.4 7 16.3 SE 7 7 4 4 1009.5 1008.0 0.0
07/09:30pm 30.2 25.1 -9.4 7 16.2 SE 11 11 6 6 1009.3 1007.8 0.0
07/09:00pm 30.4 25.2 -11.2 6 16.6 SE 11 13 6 7 1009.0 1007.5 0.0
07/08:30pm 31.4 26.2 -10.4 6 17.0 SE 11 13 6 7 1008.9 1007.4 0.0
07/08:00pm 32.3 27.2 -9.8 6 17.5 ESE 11 11 6 6 1008.7 1007.2 0.0
07/07:30pm 33.7 28.5 -11.1 5 18.4 SE 11 13 6 7 1008.4 1006.9 0.0
07/07:00pm 36.8 31.5 -11.8 4 20.4 SE 11 17 6 9 1008.0 1006.5 0.0
07/06:30pm 39.5 34.4 -9.9 4 21.7 S 11 17 6 9 1007.6 1006.1 0.0
07/06:00pm 40.7 35.8 -12.7 3 22.8 SSW 9 15 5 8 1007.3 1005.8 0.0
07/05:30pm 40.9 36.3 -12.6 3 22.9 WSW 7 15 4 8 1007.1 1005.6 0.0
07/05:00pm 41.3 35.6 -12.3 3 23.1 S 13 22 7 12 1007.0 1005.5 0.0
07/04:30pm 41.4 35.7 -12.3 3 23.1 SSW 13 24 7 13 1007.1 1005.6 0.0
07/04:00pm 41.9 36.6 -11.9 3 23.5 WSW 11 20 6 11 1007.1 1005.6 0.0
07/03:30pm 42.1 36.8 -11.8 3 23.5 SW 11 24 6 13 1007.4 1005.9 0.0
07/03:00pm 40.7 36.1 -12.7 3 22.8 NNW 7 15 4 8 1007.7 1006.2 0.0

Other formats

Comma delimited format used in spreadsheet applications
http://www.bom.gov.au/fwo/IDQ60801/IDQ60801.94342.axf

JavaScript Object Notation format (JSON) in row-major order
http://www.bom.gov.au/fwo/IDQ60801/IDQ60801.94342.json

Data quality

Most of these data are generated automatically and are frequently updated. Quality checks on data are not normally performed. It is possible for incorrect values to appear. Refer to information at About Latest Weather Observations and please check the disclaimer before using these data.